Time,TemperatureF,DewpointF,PressureIn,WindDirection,WindDirectionDegrees,WindSpeedMPH,WindSpeedGustMPH,Humidity,HourlyPrecipIn,Conditions,Clouds,dailyrainin,SolarRadiationWatts/m^2,SoftwareType,DateUTC
2013-02-14 00:02:00,30.0,27.0,-100.00,NNW,348,13.0,21.0,89,0.00,,,0.07,0.000000,,2013-02-14 05:02:00,
2013-02-14 00:32:00,30.0,27.0,-100.00,North,354,13.0,25.0,88,0.00,,,0.07,0.000000,,2013-02-14 05:32:00,
2013-02-14 00:42:00,30.0,27.0,-100.00,North,354,13.0,25.0,88,0.00,,,0.07,0.000000,,2013-02-14 05:42:00,
2013-02-14 00:52:00,30.0,27.0,-100.00,North,354,13.0,25.0,88,0.00,,,0.07,0.000000,,2013-02-14 05:52:00,
2013-02-14 01:02:00,30.0,27.0,-100.00,North,354,13.0,25.0,88,0.00,,,0.07,0.000000,,2013-02-14 06:02:00,
2013-02-14 01:32:00,29.0,26.0,-100.00,NNW,344,14.0,24.0,89,0.00,,,0.06,0.000000,,2013-02-14 06:32:00,
2013-02-14 01:42:00,29.0,26.0,-100.00,NNW,344,14.0,24.0,89,0.00,,,0.06,0.000000,,2013-02-14 06:42:00,
2013-02-14 01:52:00,29.0,26.0,-100.00,NNW,344,14.0,24.0,89,0.00,,,0.06,0.000000,,2013-02-14 06:52:00,
2013-02-14 02:01:00,29.0,26.0,-100.00,NNW,344,14.0,24.0,89,0.00,,,0.06,0.000000,,2013-02-14 07:01:00,
2013-02-14 02:32:00,29.0,27.0,-100.00,North,355,13.0,26.0,92,0.00,,,0.04,0.000000,,2013-02-14 07:32:00,
2013-02-14 02:42:00,29.0,27.0,-100.00,North,355,13.0,26.0,92,0.00,,,0.04,0.000000,,2013-02-14 07:42:00,
2013-02-14 02:52:00,29.0,27.0,-100.00,North,355,13.0,26.0,92,0.00,,,0.04,0.000000,,2013-02-14 07:52:00,
2013-02-14 03:01:00,29.0,27.0,-100.00,North,355,13.0,26.0,92,0.00,,,0.04,0.000000,,2013-02-14 08:01:00,
2013-02-14 03:32:00,29.0,27.0,-100.00,North,358,12.0,21.0,91,0.00,,,0.04,0.000000,,2013-02-14 08:32:00,
2013-02-14 03:43:00,29.0,27.0,-100.00,North,358,12.0,21.0,91,0.00,,,0.04,0.000000,,2013-02-14 08:43:00,
2013-02-14 03:52:00,29.0,27.0,-100.00,North,358,12.0,21.0,91,0.00,,,0.04,0.000000,,2013-02-14 08:52:00,
2013-02-14 04:02:00,29.0,27.0,-100.00,North,358,12.0,21.0,91,0.00,,,0.04,0.000000,,2013-02-14 09:02:00,
2013-02-14 04:32:00,28.0,26.0,-100.00,NNW,348,12.0,21.0,92,0.00,,,0.03,0.000000,,2013-02-14 09:32:00,
2013-02-14 04:42:00,28.0,26.0,-100.00,NNW,348,12.0,21.0,92,0.00,,,0.03,0.000000,,2013-02-14 09:42:00,
2013-02-14 04:52:00,28.0,26.0,-100.00,NNW,348,12.0,21.0,92,0.00,,,0.03,0.000000,,2013-02-14 09:52:00,
2013-02-14 05:02:00,28.0,26.0,-100.00,NNW,348,12.0,21.0,92,0.00,,,0.03,0.000000,,2013-02-14 10:02:00,
2013-02-14 05:32:00,28.0,26.0,-100.00,North,352,13.0,23.0,92,0.00,,,0.03,0.000000,,2013-02-14 10:32:00,
2013-02-14 05:42:00,28.0,26.0,-100.00,North,352,13.0,23.0,92,0.00,,,0.03,0.000000,,2013-02-14 10:42:00,
2013-02-14 05:52:00,28.0,26.0,-100.00,North,352,13.0,23.0,92,0.00,,,0.03,0.000000,,2013-02-14 10:52:00,
2013-02-14 06:02:00,28.0,26.0,-100.00,North,352,13.0,23.0,92,0.00,,,0.03,0.000000,,2013-02-14 11:02:00,
2013-02-14 06:32:00,27.0,25.0,-100.00,North,11,9.0,18.0,93,0.00,,,0.03,0.000000,,2013-02-14 11:32:00,
2013-02-14 06:42:00,27.0,25.0,-100.00,North,11,9.0,18.0,93,0.00,,,0.03,0.000000,,2013-02-14 11:42:00,
2013-02-14 06:52:00,27.0,25.0,-100.00,North,11,9.0,18.0,93,0.00,,,0.03,0.000000,,2013-02-14 11:52:00,
2013-02-14 07:02:00,27.0,25.0,-100.00,North,11,9.0,18.0,93,0.00,,,0.03,0.000000,,2013-02-14 12:02:00,
2013-02-14 07:32:00,27.0,25.0,-100.00,North,5,8.0,15.0,91,0.00,,,0.03,0.000000,,2013-02-14 12:32:00,
2013-02-14 07:42:00,27.0,25.0,-100.00,North,5,8.0,15.0,91,0.00,,,0.03,0.000000,,2013-02-14 12:42:00,
2013-02-14 07:53:00,27.0,25.0,-100.00,North,5,8.0,15.0,91,0.00,,,0.03,0.000000,,2013-02-14 12:53:00,
2013-02-14 08:02:00,27.0,25.0,-100.00,North,5,8.0,15.0,91,0.00,,,0.03,0.000000,,2013-02-14 13:02:00,
2013-02-14 09:32:00,29.0,26.0,-100.00,North,4,6.0,12.0,90,-99.99,,,0.02,125.000000,,2013-02-14 14:32:00,
2013-02-14 09:42:00,29.0,26.0,-100.00,North,4,6.0,12.0,90,-99.99,,,0.02,125.000000,,2013-02-14 14:42:00,
2013-02-14 09:52:00,29.0,26.0,-100.00,North,4,6.0,12.0,90,-99.99,,,0.02,125.000000,,2013-02-14 14:52:00,
2013-02-14 10:02:00,29.0,26.0,-100.00,North,4,6.0,12.0,90,-99.99,,,0.02,125.000000,,2013-02-14 15:02:00,
2013-02-14 10:32:00,31.0,26.0,-100.00,NNW,333,7.0,11.0,80,0.00,,,0.02,514.000000,,2013-02-14 15:32:00,
2013-02-14 10:42:00,31.0,26.0,-100.00,NNW,333,7.0,11.0,80,0.00,,,0.02,514.000000,,2013-02-14 15:42:00,
2013-02-14 10:52:00,31.0,26.0,-100.00,NNW,333,7.0,11.0,80,0.00,,,0.02,514.000000,,2013-02-14 15:52:00,
2013-02-14 11:02:00,31.0,26.0,-100.00,NNW,333,7.0,11.0,80,0.00,,,0.02,514.000000,,2013-02-14 16:02:00,
2013-02-14 11:32:00,36.0,29.0,-100.00,NW,304,3.0,11.0,75,0.00,,,0.02,734.000000,,2013-02-14 16:32:00,
2013-02-14 11:42:00,36.0,29.0,-100.00,NW,304,3.0,11.0,75,0.00,,,0.02,734.000000,,2013-02-14 16:42:00,
2013-02-14 11:52:00,36.0,29.0,-100.00,NW,304,3.0,11.0,75,0.00,,,0.02,734.000000,,2013-02-14 16:52:00,
2013-02-14 12:01:00,36.0,29.0,-100.00,NW,304,3.0,11.0,75,0.00,,,0.02,734.000000,,2013-02-14 17:01:00,
2013-02-14 12:32:00,43.0,27.0,-100.00,NNW,334,4.0,7.0,52,0.00,,,0.02,867.000000,,2013-02-14 17:32:00,
2013-02-14 12:42:00,43.0,27.0,-100.00,NNW,334,4.0,7.0,52,0.00,,,0.02,867.000000,,2013-02-14 17:42:00,
2013-02-14 12:52:00,43.0,27.0,-100.00,NNW,334,4.0,7.0,52,0.00,,,0.02,867.000000,,2013-02-14 17:52:00,
2013-02-14 13:02:00,43.0,27.0,-100.00,NNW,334,4.0,7.0,52,0.00,,,0.02,867.000000,,2013-02-14 18:02:00,
2013-02-14 13:32:00,45.0,23.0,-100.00,NNW,333,4.0,10.0,41,0.00,,,0.02,943.000000,,2013-02-14 18:32:00,
2013-02-14 13:42:00,45.0,23.0,-100.00,NNW,333,4.0,10.0,41,0.00,,,0.02,943.000000,,2013-02-14 18:42:00,
2013-02-14 13:52:00,45.0,23.0,-100.00,NNW,333,4.0,10.0,41,0.00,,,0.02,943.000000,,2013-02-14 18:52:00,
2013-02-14 14:02:00,45.0,23.0,-100.00,NNW,333,4.0,10.0,41,0.00,,,0.02,943.000000,,2013-02-14 19:02:00,
2013-02-14 14:32:00,49.0,28.0,-100.00,NW,323,4.0,10.0,44,0.00,,,0.02,928.000000,,2013-02-14 19:32:00,
2013-02-14 14:42:00,49.0,28.0,-100.00,NW,323,4.0,10.0,44,0.00,,,0.02,928.000000,,2013-02-14 19:42:00,
2013-02-14 14:52:00,49.0,28.0,-100.00,NW,323,4.0,10.0,44,0.00,,,0.02,928.000000,,2013-02-14 19:52:00,
2013-02-14 15:01:00,49.0,28.0,-100.00,NW,323,4.0,10.0,44,0.00,,,0.02,928.000000,,2013-02-14 20:01:00,
2013-02-14 15:32:00,47.0,25.0,-100.00,NW,323,6.0,13.0,41,0.00,,,-99.99,834.000000,,2013-02-14 20:32:00,
2013-02-14 15:42:00,47.0,25.0,-100.00,NW,323,6.0,13.0,41,0.00,,,-99.99,834.000000,,2013-02-14 20:42:00,
2013-02-14 15:52:00,47.0,25.0,-100.00,NW,323,6.0,13.0,41,0.00,,,-99.99,834.000000,,2013-02-14 20:52:00,
2013-02-14 16:02:00,47.0,25.0,-100.00,NW,323,6.0,13.0,41,0.00,,,-99.99,834.000000,,2013-02-14 21:02:00,
2013-02-14 16:32:00,47.0,23.0,-100.00,NW,310,6.0,11.0,38,0.00,,,0.02,667.000000,,2013-02-14 21:32:00,
2013-02-14 17:32:00,45.0,25.0,-100.00,NNW,330,8.0,19.0,45,0.00,,,0.01,431.000000,,2013-02-14 22:32:00,
2013-02-14 17:42:00,45.0,25.0,-100.00,NNW,330,8.0,19.0,45,0.00,,,0.01,431.000000,,2013-02-14 22:42:00,
2013-02-14 17:52:00,45.0,25.0,-100.00,NNW,330,8.0,19.0,45,0.00,,,0.01,431.000000,,2013-02-14 22:52:00,
2013-02-14 18:01:00,45.0,25.0,-100.00,NNW,330,8.0,19.0,45,0.00,,,0.01,431.000000,,2013-02-14 23:01:00,
2013-02-14 18:32:00,42.0,24.0,-100.00,North,352,9.0,17.0,49,0.00,,,0.00,140.000000,,2013-02-14 23:32:00,
2013-02-14 18:42:00,42.0,24.0,-100.00,North,352,9.0,17.0,49,0.00,,,0.00,140.000000,,2013-02-14 23:42:00,
2013-02-14 18:52:00,42.0,24.0,-100.00,North,352,9.0,17.0,49,0.00,,,0.00,140.000000,,2013-02-14 23:52:00,
2013-02-14 19:01:00,42.0,24.0,-100.00,North,352,9.0,17.0,49,0.00,,,0.00,140.000000,,2013-02-15 00:01:00,
2013-02-14 19:32:00,41.0,24.0,-100.00,NNW,347,8.0,17.0,50,0.00,,,0.00,3.000000,,2013-02-15 00:32:00,
2013-02-14 19:42:00,41.0,24.0,-100.00,NNW,347,8.0,17.0,50,0.00,,,0.00,3.000000,,2013-02-15 00:42:00,
2013-02-14 19:52:00,41.0,24.0,-100.00,NNW,347,8.0,17.0,50,0.00,,,0.00,3.000000,,2013-02-15 00:52:00,
2013-02-14 20:02:00,41.0,24.0,-100.00,NNW,347,8.0,17.0,50,0.00,,,0.00,3.000000,,2013-02-15 01:02:00,
2013-02-14 20:32:00,40.0,24.0,-100.00,NNW,342,9.0,18.0,53,0.00,,,-99.99,0.000000,,2013-02-15 01:32:00,
2013-02-14 20:42:00,40.0,24.0,-100.00,NNW,342,9.0,18.0,53,0.00,,,-99.99,0.000000,,2013-02-15 01:42:00,
2013-02-14 20:52:00,40.0,24.0,-100.00,NNW,342,9.0,18.0,53,0.00,,,-99.99,0.000000,,2013-02-15 01:52:00,
2013-02-14 21:01:00,40.0,24.0,-100.00,NNW,342,9.0,18.0,53,0.00,,,-99.99,0.000000,,2013-02-15 02:01:00,
2013-02-14 21:32:00,40.0,26.0,-100.00,NNW,344,9.0,19.0,58,0.00,,,0.00,0.000000,,2013-02-15 02:32:00,
2013-02-14 21:42:00,40.0,26.0,-100.00,NNW,344,9.0,19.0,58,0.00,,,0.00,0.000000,,2013-02-15 02:42:00,
2013-02-14 21:52:00,40.0,26.0,-100.00,NNW,344,9.0,19.0,58,0.00,,,0.00,0.000000,,2013-02-15 02:52:00,
2013-02-14 22:02:00,40.0,26.0,-100.00,NNW,344,9.0,19.0,58,0.00,,,0.00,0.000000,,2013-02-15 03:02:00,
2013-02-14 22:32:00,39.0,27.0,-100.00,North,7,5.0,11.0,62,0.00,,,0.00,0.000000,,2013-02-15 03:32:00,
2013-02-14 22:42:00,39.0,27.0,-100.00,North,7,5.0,11.0,62,0.00,,,0.00,0.000000,,2013-02-15 03:42:00,
2013-02-14 22:52:00,39.0,27.0,-100.00,North,7,5.0,11.0,62,0.00,,,0.00,0.000000,,2013-02-15 03:52:00,
2013-02-14 23:02:00,39.0,27.0,-100.00,North,7,5.0,11.0,62,0.00,,,0.00,0.000000,,2013-02-15 04:02:00,
2013-02-14 23:32:00,39.0,27.0,-100.00,North,354,7.0,16.0,61,0.00,,,0.00,0.000000,,2013-02-15 04:32:00,
2013-02-14 23:42:00,39.0,27.0,-100.00,North,354,7.0,16.0,61,0.00,,,0.00,0.000000,,2013-02-15 04:42:00,
2013-02-14 23:52:00,39.0,27.0,-100.00,North,354,7.0,16.0,61,0.00,,,0.00,0.000000,,2013-02-15 04:52:00,